sensor_id;sensor_type;location;lat;lon;timestamp;P1;durP1;ratioP1;P2;durP2;ratioP2
20758;SDS011;10539;53.686;9.158;2023-04-25T00:02:18;14.53;;;3.70;;
20758;SDS011;10539;53.686;9.158;2023-04-25T00:04:44;17.80;;;4.00;;
20758;SDS011;10539;53.686;9.158;2023-04-25T00:07:11;21.00;;;3.60;;
20758;SDS011;10539;53.686;9.158;2023-04-25T00:09:37;13.77;;;3.13;;
20758;SDS011;10539;53.686;9.158;2023-04-25T00:12:03;25.00;;;3.63;;
20758;SDS011;10539;53.686;9.158;2023-04-25T00:14:29;23.60;;;3.67;;
20758;SDS011;10539;53.686;9.158;2023-04-25T00:16:55;22.67;;;3.83;;
20758;SDS011;10539;53.686;9.158;2023-04-25T00:19:21;21.73;;;4.47;;
20758;SDS011;10539;53.686;9.158;2023-04-25T00:21:47;29.27;;;4.43;;
20758;SDS011;10539;53.686;9.158;2023-04-25T00:24:13;18.03;;;3.07;;
20758;SDS011;10539;53.686;9.158;2023-04-25T00:26:39;21.70;;;3.90;;
20758;SDS011;10539;53.686;9.158;2023-04-25T00:29:05;24.53;;;3.70;;
20758;SDS011;10539;53.686;9.158;2023-04-25T00:31:30;19.33;;;3.60;;
20758;SDS011;10539;53.686;9.158;2023-04-25T00:33:56;21.53;;;3.30;;
20758;SDS011;10539;53.686;9.158;2023-04-25T00:36:22;22.77;;;3.53;;
20758;SDS011;10539;53.686;9.158;2023-04-25T00:38:48;22.37;;;3.90;;
20758;SDS011;10539;53.686;9.158;2023-04-25T00:41:14;19.93;;;3.77;;
20758;SDS011;10539;53.686;9.158;2023-04-25T00:43:40;31.37;;;3.67;;
20758;SDS011;10539;53.686;9.158;2023-04-25T00:46:07;25.27;;;4.63;;
20758;SDS011;10539;53.686;9.158;2023-04-25T00:48:33;25.13;;;4.70;;
20758;SDS011;10539;53.686;9.158;2023-04-25T00:50:59;22.60;;;3.03;;
20758;SDS011;10539;53.686;9.158;2023-04-25T00:53:25;20.70;;;3.63;;
20758;SDS011;10539;53.686;9.158;2023-04-25T00:55:52;22.43;;;3.73;;
20758;SDS011;10539;53.686;9.158;2023-04-25T00:58:19;22.40;;;2.83;;
20758;SDS011;10539;53.686;9.158;2023-04-25T01:00:46;23.23;;;3.53;;
20758;SDS011;10539;53.686;9.158;2023-04-25T01:03:14;22.30;;;3.13;;
20758;SDS011;10539;53.686;9.158;2023-04-25T01:05:41;23.37;;;3.33;;
20758;SDS011;10539;53.686;9.158;2023-04-25T01:08:08;21.67;;;2.90;;
20758;SDS011;10539;53.686;9.158;2023-04-25T01:10:33;23.90;;;3.10;;
20758;SDS011;10539;53.686;9.158;2023-04-25T01:12:59;25.47;;;3.50;;
20758;SDS011;10539;53.686;9.158;2023-04-25T01:15:25;16.73;;;2.90;;
20758;SDS011;10539;53.686;9.158;2023-04-25T01:17:51;24.27;;;3.20;;
20758;SDS011;10539;53.686;9.158;2023-04-25T01:20:18;24.03;;;3.20;;
20758;SDS011;10539;53.686;9.158;2023-04-25T01:22:47;26.63;;;3.37;;
20758;SDS011;10539;53.686;9.158;2023-04-25T01:25:13;20.00;;;3.30;;
20758;SDS011;10539;53.686;9.158;2023-04-25T01:27:39;21.47;;;3.60;;
20758;SDS011;10539;53.686;9.158;2023-04-25T01:30:05;27.80;;;3.77;;
20758;SDS011;10539;53.686;9.158;2023-04-25T01:32:32;18.90;;;2.93;;
20758;SDS011;10539;53.686;9.158;2023-04-25T01:35:07;18.83;;;2.93;;
20758;SDS011;10539;53.686;9.158;2023-04-25T01:37:38;19.77;;;3.20;;
20758;SDS011;10539;53.686;9.158;2023-04-25T01:40:04;16.73;;;4.10;;
20758;SDS011;10539;53.686;9.158;2023-04-25T01:42:34;18.30;;;3.67;;
20758;SDS011;10539;53.686;9.158;2023-04-25T01:45:01;18.70;;;3.10;;
20758;SDS011;10539;53.686;9.158;2023-04-25T01:47:27;15.03;;;2.60;;
20758;SDS011;10539;53.686;9.158;2023-04-25T01:49:53;15.87;;;3.23;;
20758;SDS011;10539;53.686;9.158;2023-04-25T01:52:19;18.97;;;3.13;;
20758;SDS011;10539;53.686;9.158;2023-04-25T01:54:45;19.70;;;3.50;;
20758;SDS011;10539;53.686;9.158;2023-04-25T01:57:11;22.57;;;3.80;;
20758;SDS011;10539;53.686;9.158;2023-04-25T01:59:37;16.63;;;2.97;;
20758;SDS011;10539;53.686;9.158;2023-04-25T02:02:03;25.57;;;3.17;;
20758;SDS011;10539;53.686;9.158;2023-04-25T02:04:30;17.93;;;3.07;;
20758;SDS011;10539;53.686;9.158;2023-04-25T02:06:55;17.97;;;3.27;;
20758;SDS011;10539;53.686;9.158;2023-04-25T02:09:22;17.00;;;3.30;;
20758;SDS011;10539;53.686;9.158;2023-04-25T02:11:48;16.93;;;2.80;;
20758;SDS011;10539;53.686;9.158;2023-04-25T02:14:13;24.10;;;3.00;;
20758;SDS011;10539;53.686;9.158;2023-04-25T02:16:39;13.50;;;2.33;;
20758;SDS011;10539;53.686;9.158;2023-04-25T02:19:05;18.20;;;3.37;;
20758;SDS011;10539;53.686;9.158;2023-04-25T02:21:32;17.57;;;2.80;;
20758;SDS011;10539;53.686;9.158;2023-04-25T02:24:00;16.60;;;2.30;;
20758;SDS011;10539;53.686;9.158;2023-04-25T02:26:26;12.13;;;2.40;;
20758;SDS011;10539;53.686;9.158;2023-04-25T02:28:52;20.07;;;3.73;;
20758;SDS011;10539;53.686;9.158;2023-04-25T02:31:18;15.00;;;2.50;;
20758;SDS011;10539;53.686;9.158;2023-04-25T02:33:44;7.50;;;1.63;;
20758;SDS011;10539;53.686;9.158;2023-04-25T02:36:09;15.60;;;2.77;;
20758;SDS011;10539;53.686;9.158;2023-04-25T02:38:35;13.07;;;2.30;;
20758;SDS011;10539;53.686;9.158;2023-04-25T02:41:01;14.17;;;2.23;;
20758;SDS011;10539;53.686;9.158;2023-04-25T02:43:27;13.90;;;2.30;;
20758;SDS011;10539;53.686;9.158;2023-04-25T02:45:52;18.40;;;2.67;;
20758;SDS011;10539;53.686;9.158;2023-04-25T02:48:18;11.00;;;2.00;;
20758;SDS011;10539;53.686;9.158;2023-04-25T02:50:44;19.27;;;2.60;;
20758;SDS011;10539;53.686;9.158;2023-04-25T02:53:10;10.40;;;2.27;;
20758;SDS011;10539;53.686;9.158;2023-04-25T02:55:36;13.33;;;2.40;;
20758;SDS011;10539;53.686;9.158;2023-04-25T02:58:02;12.50;;;1.93;;
20758;SDS011;10539;53.686;9.158;2023-04-25T03:00:27;19.03;;;3.03;;
20758;SDS011;10539;53.686;9.158;2023-04-25T03:02:53;21.43;;;2.63;;
20758;SDS011;10539;53.686;9.158;2023-04-25T03:05:20;17.10;;;2.63;;
20758;SDS011;10539;53.686;9.158;2023-04-25T03:07:46;12.40;;;2.10;;
20758;SDS011;10539;53.686;9.158;2023-04-25T03:10:12;14.57;;;2.10;;
20758;SDS011;10539;53.686;9.158;2023-04-25T03:12:37;11.60;;;2.20;;
20758;SDS011;10539;53.686;9.158;2023-04-25T03:15:03;17.70;;;2.60;;
20758;SDS011;10539;53.686;9.158;2023-04-25T03:17:29;16.63;;;2.73;;
20758;SDS011;10539;53.686;9.158;2023-04-25T03:19:55;13.33;;;2.47;;
20758;SDS011;10539;53.686;9.158;2023-04-25T03:22:22;25.17;;;2.97;;
20758;SDS011;10539;53.686;9.158;2023-04-25T03:24:50;14.83;;;2.13;;
20758;SDS011;10539;53.686;9.158;2023-04-25T03:27:16;16.80;;;2.37;;
20758;SDS011;10539;53.686;9.158;2023-04-25T03:29:42;11.27;;;1.97;;
20758;SDS011;10539;53.686;9.158;2023-04-25T03:32:08;13.60;;;1.83;;
20758;SDS011;10539;53.686;9.158;2023-04-25T03:34:34;23.27;;;2.47;;
20758;SDS011;10539;53.686;9.158;2023-04-25T03:37:00;15.83;;;2.43;;
20758;SDS011;10539;53.686;9.158;2023-04-25T03:39:26;15.60;;;2.50;;
20758;SDS011;10539;53.686;9.158;2023-04-25T03:41:52;14.93;;;1.90;;
20758;SDS011;10539;53.686;9.158;2023-04-25T03:44:17;18.70;;;2.83;;
20758;SDS011;10539;53.686;9.158;2023-04-25T03:46:43;9.53;;;1.83;;
20758;SDS011;10539;53.686;9.158;2023-04-25T03:49:09;9.20;;;2.60;;
20758;SDS011;10539;53.686;9.158;2023-04-25T03:51:34;12.03;;;2.70;;
20758;SDS011;10539;53.686;9.158;2023-04-25T03:54:00;12.97;;;2.20;;
20758;SDS011;10539;53.686;9.158;2023-04-25T03:56:26;17.57;;;2.10;;
20758;SDS011;10539;53.686;9.158;2023-04-25T03:58:52;7.37;;;2.00;;
20758;SDS011;10539;53.686;9.158;2023-04-25T04:01:17;11.60;;;2.73;;
20758;SDS011;10539;53.686;9.158;2023-04-25T04:03:43;10.70;;;2.30;;
20758;SDS011;10539;53.686;9.158;2023-04-25T04:06:10;16.33;;;2.27;;
20758;SDS011;10539;53.686;9.158;2023-04-25T04:08:36;10.37;;;2.13;;
20758;SDS011;10539;53.686;9.158;2023-04-25T04:11:01;16.67;;;2.60;;
20758;SDS011;10539;53.686;9.158;2023-04-25T04:13:27;14.20;;;2.40;;
20758;SDS011;10539;53.686;9.158;2023-04-25T04:15:53;15.53;;;1.70;;
20758;SDS011;10539;53.686;9.158;2023-04-25T04:18:20;14.03;;;2.83;;
20758;SDS011;10539;53.686;9.158;2023-04-25T04:20:47;12.83;;;2.17;;
20758;SDS011;10539;53.686;9.158;2023-04-25T04:23:12;14.67;;;1.90;;
20758;SDS011;10539;53.686;9.158;2023-04-25T04:25:38;17.87;;;2.47;;
20758;SDS011;10539;53.686;9.158;2023-04-25T04:28:05;5.33;;;1.17;;
20758;SDS011;10539;53.686;9.158;2023-04-25T04:30:31;9.60;;;1.87;;
20758;SDS011;10539;53.686;9.158;2023-04-25T04:33:01;5.27;;;1.70;;
20758;SDS011;10539;53.686;9.158;2023-04-25T04:35:27;12.90;;;1.73;;
20758;SDS011;10539;53.686;9.158;2023-04-25T04:37:53;8.60;;;1.90;;
20758;SDS011;10539;53.686;9.158;2023-04-25T04:40:19;10.13;;;2.10;;
20758;SDS011;10539;53.686;9.158;2023-04-25T04:42:46;10.20;;;2.23;;
20758;SDS011;10539;53.686;9.158;2023-04-25T04:45:13;12.23;;;2.50;;
20758;SDS011;10539;53.686;9.158;2023-04-25T04:47:39;12.77;;;2.30;;
20758;SDS011;10539;53.686;9.158;2023-04-25T04:50:09;20.20;;;3.07;;
20758;SDS011;10539;53.686;9.158;2023-04-25T04:52:36;13.87;;;2.37;;
20758;SDS011;10539;53.686;9.158;2023-04-25T04:55:04;14.17;;;2.40;;
20758;SDS011;10539;53.686;9.158;2023-04-25T04:57:31;15.63;;;2.40;;
20758;SDS011;10539;53.686;9.158;2023-04-25T04:59:58;10.43;;;1.90;;
20758;SDS011;10539;53.686;9.158;2023-04-25T05:02:24;8.60;;;2.30;;
20758;SDS011;10539;53.686;9.158;2023-04-25T05:04:50;12.50;;;2.00;;
20758;SDS011;10539;53.686;9.158;2023-04-25T05:07:17;13.63;;;1.87;;
20758;SDS011;10539;53.686;9.158;2023-04-25T05:09:43;13.80;;;2.13;;
20758;SDS011;10539;53.686;9.158;2023-04-25T05:12:09;20.63;;;2.70;;
20758;SDS011;10539;53.686;9.158;2023-04-25T05:14:35;15.77;;;2.27;;
20758;SDS011;10539;53.686;9.158;2023-04-25T05:17:01;13.60;;;2.17;;
20758;SDS011;10539;53.686;9.158;2023-04-25T05:19:30;16.73;;;2.43;;
20758;SDS011;10539;53.686;9.158;2023-04-25T05:21:55;9.50;;;2.03;;
20758;SDS011;10539;53.686;9.158;2023-04-25T05:24:21;16.23;;;2.13;;
20758;SDS011;10539;53.686;9.158;2023-04-25T05:26:47;17.33;;;2.70;;
20758;SDS011;10539;53.686;9.158;2023-04-25T05:29:13;11.17;;;2.27;;
20758;SDS011;10539;53.686;9.158;2023-04-25T05:31:38;10.50;;;2.00;;
20758;SDS011;10539;53.686;9.158;2023-04-25T05:34:04;11.57;;;2.17;;
20758;SDS011;10539;53.686;9.158;2023-04-25T05:36:30;12.00;;;1.97;;
20758;SDS011;10539;53.686;9.158;2023-04-25T05:38:57;13.17;;;2.20;;
20758;SDS011;10539;53.686;9.158;2023-04-25T05:41:23;14.20;;;2.73;;
20758;SDS011;10539;53.686;9.158;2023-04-25T05:43:49;13.97;;;2.30;;
20758;SDS011;10539;53.686;9.158;2023-04-25T05:46:15;6.77;;;1.77;;
20758;SDS011;10539;53.686;9.158;2023-04-25T05:48:42;9.00;;;1.80;;
20758;SDS011;10539;53.686;9.158;2023-04-25T05:51:08;11.07;;;1.70;;
20758;SDS011;10539;53.686;9.158;2023-04-25T05:53:34;13.17;;;1.77;;
20758;SDS011;10539;53.686;9.158;2023-04-25T05:56:01;13.90;;;2.20;;
20758;SDS011;10539;53.686;9.158;2023-04-25T05:58:26;12.63;;;1.90;;
20758;SDS011;10539;53.686;9.158;2023-04-25T06:00:52;19.80;;;2.23;;
20758;SDS011;10539;53.686;9.158;2023-04-25T06:03:18;11.43;;;1.40;;
20758;SDS011;10539;53.686;9.158;2023-04-25T06:05:43;8.07;;;1.60;;
20758;SDS011;10539;53.686;9.158;2023-04-25T06:08:09;9.93;;;1.73;;
20758;SDS011;10539;53.686;9.158;2023-04-25T06:10:36;7.13;;;1.87;;
20758;SDS011;10539;53.686;9.158;2023-04-25T06:13:02;7.70;;;1.50;;
20758;SDS011;10539;53.686;9.158;2023-04-25T06:15:27;7.43;;;1.53;;
20758;SDS011;10539;53.686;9.158;2023-04-25T06:17:53;8.23;;;1.37;;
20758;SDS011;10539;53.686;9.158;2023-04-25T06:20:19;8.07;;;1.40;;
20758;SDS011;10539;53.686;9.158;2023-04-25T06:22:48;9.37;;;1.47;;
20758;SDS011;10539;53.686;9.158;2023-04-25T06:25:15;10.00;;;1.30;;
20758;SDS011;10539;53.686;9.158;2023-04-25T06:27:41;8.40;;;1.40;;
20758;SDS011;10539;53.686;9.158;2023-04-25T06:30:06;8.43;;;1.33;;
20758;SDS011;10539;53.686;9.158;2023-04-25T06:32:33;12.10;;;1.27;;
20758;SDS011;10539;53.686;9.158;2023-04-25T06:34:59;7.77;;;1.47;;
20758;SDS011;10539;53.686;9.158;2023-04-25T06:37:25;6.77;;;1.40;;
20758;SDS011;10539;53.686;9.158;2023-04-25T06:39:51;9.97;;;1.53;;
20758;SDS011;10539;53.686;9.158;2023-04-25T06:42:17;9.03;;;2.10;;
20758;SDS011;10539;53.686;9.158;2023-04-25T06:44:43;14.33;;;1.73;;
20758;SDS011;10539;53.686;9.158;2023-04-25T06:47:08;13.03;;;1.40;;
20758;SDS011;10539;53.686;9.158;2023-04-25T06:49:34;10.80;;;1.30;;
20758;SDS011;10539;53.686;9.158;2023-04-25T06:52:00;3.43;;;1.30;;
20758;SDS011;10539;53.686;9.158;2023-04-25T06:54:26;6.30;;;1.30;;
20758;SDS011;10539;53.686;9.158;2023-04-25T06:56:54;11.30;;;1.33;;
20758;SDS011;10539;53.686;9.158;2023-04-25T06:59:20;12.53;;;1.27;;
20758;SDS011;10539;53.686;9.158;2023-04-25T07:01:46;5.00;;;1.50;;
20758;SDS011;10539;53.686;9.158;2023-04-25T07:04:12;6.07;;;1.30;;
20758;SDS011;10539;53.686;9.158;2023-04-25T07:06:37;6.33;;;1.20;;
20758;SDS011;10539;53.686;9.158;2023-04-25T07:09:08;8.10;;;1.50;;
20758;SDS011;10539;53.686;9.158;2023-04-25T07:11:35;9.37;;;1.33;;
20758;SDS011;10539;53.686;9.158;2023-04-25T07:14:01;9.53;;;1.43;;
20758;SDS011;10539;53.686;9.158;2023-04-25T07:16:27;8.97;;;1.47;;
20758;SDS011;10539;53.686;9.158;2023-04-25T07:18:53;13.20;;;1.80;;
20758;SDS011;10539;53.686;9.158;2023-04-25T07:21:19;5.13;;;1.33;;
20758;SDS011;10539;53.686;9.158;2023-04-25T07:23:45;9.20;;;1.50;;
20758;SDS011;10539;53.686;9.158;2023-04-25T07:26:10;9.83;;;1.43;;
20758;SDS011;10539;53.686;9.158;2023-04-25T07:28:36;14.57;;;1.73;;
20758;SDS011;10539;53.686;9.158;2023-04-25T07:31:02;4.43;;;1.33;;
20758;SDS011;10539;53.686;9.158;2023-04-25T07:33:28;9.33;;;1.50;;
20758;SDS011;10539;53.686;9.158;2023-04-25T07:35:54;10.50;;;1.53;;
20758;SDS011;10539;53.686;9.158;2023-04-25T07:38:20;11.87;;;1.50;;
20758;SDS011;10539;53.686;9.158;2023-04-25T07:40:49;9.83;;;1.53;;
20758;SDS011;10539;53.686;9.158;2023-04-25T07:43:15;9.87;;;1.83;;
20758;SDS011;10539;53.686;9.158;2023-04-25T07:45:42;9.47;;;1.70;;
20758;SDS011;10539;53.686;9.158;2023-04-25T07:48:08;13.33;;;2.03;;
20758;SDS011;10539;53.686;9.158;2023-04-25T07:50:35;6.60;;;1.40;;
20758;SDS011;10539;53.686;9.158;2023-04-25T07:53:01;9.93;;;2.07;;
20758;SDS011;10539;53.686;9.158;2023-04-25T07:55:27;14.00;;;1.67;;
20758;SDS011;10539;53.686;9.158;2023-04-25T07:57:53;16.20;;;1.77;;
20758;SDS011;10539;53.686;9.158;2023-04-25T08:00:19;9.40;;;1.70;;
20758;SDS011;10539;53.686;9.158;2023-04-25T08:02:44;4.73;;;1.00;;
20758;SDS011;10539;53.686;9.158;2023-04-25T08:05:10;6.90;;;1.07;;
20758;SDS011;10539;53.686;9.158;2023-04-25T08:07:39;11.57;;;1.23;;
20758;SDS011;10539;53.686;9.158;2023-04-25T08:10:06;3.43;;;0.87;;
20758;SDS011;10539;53.686;9.158;2023-04-25T08:12:33;13.13;;;1.90;;
20758;SDS011;10539;53.686;9.158;2023-04-25T08:14:59;14.90;;;1.83;;
20758;SDS011;10539;53.686;9.158;2023-04-25T08:17:25;7.67;;;1.33;;
20758;SDS011;10539;53.686;9.158;2023-04-25T08:19:50;10.67;;;1.73;;
20758;SDS011;10539;53.686;9.158;2023-04-25T08:22:16;8.87;;;1.73;;
20758;SDS011;10539;53.686;9.158;2023-04-25T08:24:42;12.07;;;1.90;;
20758;SDS011;10539;53.686;9.158;2023-04-25T08:27:07;13.07;;;2.33;;
20758;SDS011;10539;53.686;9.158;2023-04-25T08:29:33;9.40;;;1.40;;
20758;SDS011;10539;53.686;9.158;2023-04-25T08:32:00;10.53;;;1.40;;
20758;SDS011;10539;53.686;9.158;2023-04-25T08:34:25;6.33;;;1.20;;
20758;SDS011;10539;53.686;9.158;2023-04-25T08:36:51;13.30;;;1.30;;
20758;SDS011;10539;53.686;9.158;2023-04-25T08:39:17;6.33;;;1.03;;
20758;SDS011;10539;53.686;9.158;2023-04-25T08:41:43;8.37;;;1.10;;
20758;SDS011;10539;53.686;9.158;2023-04-25T08:44:10;11.30;;;1.43;;
20758;SDS011;10539;53.686;9.158;2023-04-25T08:46:39;9.70;;;1.50;;
20758;SDS011;10539;53.686;9.158;2023-04-25T08:49:06;6.10;;;1.20;;
20758;SDS011;10539;53.686;9.158;2023-04-25T08:51:34;6.23;;;1.40;;
20758;SDS011;10539;53.686;9.158;2023-04-25T08:54:10;2.70;;;1.00;;
20758;SDS011;10539;53.686;9.158;2023-04-25T08:56:38;5.43;;;0.90;;
20758;SDS011;10539;53.686;9.158;2023-04-25T08:59:06;8.77;;;1.07;;
20758;SDS011;10539;53.686;9.158;2023-04-25T09:01:33;8.17;;;1.00;;
20758;SDS011;10539;53.686;9.158;2023-04-25T09:04:03;9.43;;;1.60;;
20758;SDS011;10539;53.686;9.158;2023-04-25T09:06:29;8.63;;;1.20;;
20758;SDS011;10539;53.686;9.158;2023-04-25T09:09:01;5.03;;;1.10;;
20758;SDS011;10539;53.686;9.158;2023-04-25T09:11:29;5.93;;;0.70;;
20758;SDS011;10539;53.686;9.158;2023-04-25T09:14:18;4.73;;;0.97;;
20758;SDS011;10539;53.686;9.158;2023-04-25T09:16:58;6.33;;;1.13;;
20758;SDS011;10539;53.686;9.158;2023-04-25T09:19:34;10.47;;;1.37;;
20758;SDS011;10539;53.686;9.158;2023-04-25T09:22:02;2.87;;;0.57;;
20758;SDS011;10539;53.686;9.158;2023-04-25T09:24:38;9.17;;;1.53;;
20758;SDS011;10539;53.686;9.158;2023-04-25T09:27:07;10.17;;;1.30;;
20758;SDS011;10539;53.686;9.158;2023-04-25T09:29:40;9.33;;;1.43;;
20758;SDS011;10539;53.686;9.158;2023-04-25T09:32:20;10.77;;;1.53;;
20758;SDS011;10539;53.686;9.158;2023-04-25T09:34:48;8.83;;;1.90;;
20758;SDS011;10539;53.686;9.158;2023-04-25T09:39:53;4.27;;;1.20;;
20758;SDS011;10539;53.686;9.158;2023-04-25T09:42:23;9.60;;;1.47;;
20758;SDS011;10539;53.686;9.158;2023-04-25T09:44:54;12.53;;;1.47;;
20758;SDS011;10539;53.686;9.158;2023-04-25T09:47:21;11.37;;;1.73;;
20758;SDS011;10539;53.686;9.158;2023-04-25T09:49:49;13.43;;;1.50;;
20758;SDS011;10539;53.686;9.158;2023-04-25T09:52:19;8.10;;;1.33;;
20758;SDS011;10539;53.686;9.158;2023-04-25T09:54:47;8.07;;;1.40;;
20758;SDS011;10539;53.686;9.158;2023-04-25T09:57:15;7.57;;;1.07;;
20758;SDS011;10539;53.686;9.158;2023-04-25T09:59:45;7.67;;;1.07;;
20758;SDS011;10539;53.686;9.158;2023-04-25T10:02:21;5.47;;;1.10;;
20758;SDS011;10539;53.686;9.158;2023-04-25T10:04:49;7.37;;;1.23;;
20758;SDS011;10539;53.686;9.158;2023-04-25T10:07:18;7.47;;;1.40;;
20758;SDS011;10539;53.686;9.158;2023-04-25T10:09:47;11.50;;;1.40;;
20758;SDS011;10539;53.686;9.158;2023-04-25T10:12:16;8.00;;;2.07;;
20758;SDS011;10539;53.686;9.158;2023-04-25T10:14:42;2.67;;;1.13;;
20758;SDS011;10539;53.686;9.158;2023-04-25T10:17:09;5.73;;;0.80;;
20758;SDS011;10539;53.686;9.158;2023-04-25T10:19:36;4.23;;;1.10;;
20758;SDS011;10539;53.686;9.158;2023-04-25T10:22:11;6.87;;;1.07;;
20758;SDS011;10539;53.686;9.158;2023-04-25T10:24:43;6.13;;;1.10;;
20758;SDS011;10539;53.686;9.158;2023-04-25T10:27:11;5.10;;;1.10;;
20758;SDS011;10539;53.686;9.158;2023-04-25T10:29:38;7.10;;;1.10;;
20758;SDS011;10539;53.686;9.158;2023-04-25T10:32:03;8.63;;;1.73;;
20758;SDS011;10539;53.686;9.158;2023-04-25T10:34:39;5.43;;;1.20;;
20758;SDS011;10539;53.686;9.158;2023-04-25T10:37:08;10.07;;;1.63;;
20758;SDS011;10539;53.686;9.158;2023-04-25T10:39:35;6.20;;;1.30;;
20758;SDS011;10539;53.686;9.158;2023-04-25T10:42:02;13.30;;;1.27;;
20758;SDS011;10539;53.686;9.158;2023-04-25T10:44:29;10.70;;;1.40;;
20758;SDS011;10539;53.686;9.158;2023-04-25T10:46:56;8.63;;;1.50;;
20758;SDS011;10539;53.686;9.158;2023-04-25T10:49:30;10.03;;;1.70;;
20758;SDS011;10539;53.686;9.158;2023-04-25T10:52:16;9.53;;;1.27;;
20758;SDS011;10539;53.686;9.158;2023-04-25T10:54:51;11.70;;;1.50;;
20758;SDS011;10539;53.686;9.158;2023-04-25T10:57:38;6.67;;;1.00;;
20758;SDS011;10539;53.686;9.158;2023-04-25T11:00:15;9.23;;;1.30;;
20758;SDS011;10539;53.686;9.158;2023-04-25T11:02:47;10.30;;;1.00;;
20758;SDS011;10539;53.686;9.158;2023-04-25T11:05:20;8.10;;;1.20;;
20758;SDS011;10539;53.686;9.158;2023-04-25T11:07:49;8.13;;;1.17;;
20758;SDS011;10539;53.686;9.158;2023-04-25T11:10:17;6.03;;;0.73;;
20758;SDS011;10539;53.686;9.158;2023-04-25T11:12:44;3.20;;;0.77;;
20758;SDS011;10539;53.686;9.158;2023-04-25T11:15:10;5.57;;;1.10;;
20758;SDS011;10539;53.686;9.158;2023-04-25T11:17:36;4.00;;;1.13;;
20758;SDS011;10539;53.686;9.158;2023-04-25T11:20:02;4.87;;;1.03;;
20758;SDS011;10539;53.686;9.158;2023-04-25T11:22:32;9.20;;;1.30;;
20758;SDS011;10539;53.686;9.158;2023-04-25T11:25:04;6.10;;;1.23;;
20758;SDS011;10539;53.686;9.158;2023-04-25T11:27:30;8.37;;;1.57;;
20758;SDS011;10539;53.686;9.158;2023-04-25T11:29:56;5.87;;;1.10;;
20758;SDS011;10539;53.686;9.158;2023-04-25T11:32:22;5.30;;;1.00;;
20758;SDS011;10539;53.686;9.158;2023-04-25T11:34:48;7.00;;;1.60;;
20758;SDS011;10539;53.686;9.158;2023-04-25T11:37:14;7.07;;;1.40;;
20758;SDS011;10539;53.686;9.158;2023-04-25T11:39:44;7.20;;;1.30;;
20758;SDS011;10539;53.686;9.158;2023-04-25T11:42:11;5.77;;;1.00;;
20758;SDS011;10539;53.686;9.158;2023-04-25T11:44:37;7.73;;;1.07;;
20758;SDS011;10539;53.686;9.158;2023-04-25T11:47:05;6.63;;;0.73;;
20758;SDS011;10539;53.686;9.158;2023-04-25T11:49:31;10.57;;;1.20;;
20758;SDS011;10539;53.686;9.158;2023-04-25T11:51:57;8.50;;;1.20;;
20758;SDS011;10539;53.686;9.158;2023-04-25T11:54:23;7.97;;;1.30;;
20758;SDS011;10539;53.686;9.158;2023-04-25T11:56:48;9.93;;;1.50;;
20758;SDS011;10539;53.686;9.158;2023-04-25T11:59:14;11.97;;;2.03;;
20758;SDS011;10539;53.686;9.158;2023-04-25T12:01:48;8.27;;;1.33;;
20758;SDS011;10539;53.686;9.158;2023-04-25T12:04:16;6.50;;;1.03;;
20758;SDS011;10539;53.686;9.158;2023-04-25T12:06:44;5.03;;;0.93;;
20758;SDS011;10539;53.686;9.158;2023-04-25T12:09:14;6.40;;;1.17;;
20758;SDS011;10539;53.686;9.158;2023-04-25T12:11:57;8.90;;;1.33;;
20758;SDS011;10539;53.686;9.158;2023-04-25T12:14:34;5.67;;;1.10;;
20758;SDS011;10539;53.686;9.158;2023-04-25T12:17:02;5.80;;;1.50;;
20758;SDS011;10539;53.686;9.158;2023-04-25T12:19:35;7.47;;;1.20;;
20758;SDS011;10539;53.686;9.158;2023-04-25T12:22:02;5.80;;;1.30;;
20758;SDS011;10539;53.686;9.158;2023-04-25T12:24:28;5.90;;;0.80;;
20758;SDS011;10539;53.686;9.158;2023-04-25T12:27:01;8.07;;;1.40;;
20758;SDS011;10539;53.686;9.158;2023-04-25T12:29:29;8.90;;;1.33;;
20758;SDS011;10539;53.686;9.158;2023-04-25T12:31:56;8.00;;;1.50;;
20758;SDS011;10539;53.686;9.158;2023-04-25T12:34:23;6.93;;;1.20;;
20758;SDS011;10539;53.686;9.158;2023-04-25T12:36:50;6.17;;;1.23;;
20758;SDS011;10539;53.686;9.158;2023-04-25T12:39:21;10.10;;;1.17;;
20758;SDS011;10539;53.686;9.158;2023-04-25T12:41:48;6.10;;;0.80;;
20758;SDS011;10539;53.686;9.158;2023-04-25T12:44:14;6.53;;;1.03;;
20758;SDS011;10539;53.686;9.158;2023-04-25T12:46:41;8.33;;;0.93;;
20758;SDS011;10539;53.686;9.158;2023-04-25T12:49:06;3.40;;;0.93;;
20758;SDS011;10539;53.686;9.158;2023-04-25T12:51:33;5.47;;;0.90;;
20758;SDS011;10539;53.686;9.158;2023-04-25T12:54:00;10.60;;;1.30;;
20758;SDS011;10539;53.686;9.158;2023-04-25T12:56:26;10.40;;;1.73;;
20758;SDS011;10539;53.686;9.158;2023-04-25T12:58:52;6.43;;;1.27;;
20758;SDS011;10539;53.686;9.158;2023-04-25T13:01:19;4.00;;;1.00;;
20758;SDS011;10539;53.686;9.158;2023-04-25T13:03:48;4.20;;;0.80;;
20758;SDS011;10539;53.686;9.158;2023-04-25T13:06:17;10.73;;;1.37;;
20758;SDS011;10539;53.686;9.158;2023-04-25T13:08:43;7.13;;;1.10;;
20758;SDS011;10539;53.686;9.158;2023-04-25T13:11:09;11.67;;;1.50;;
20758;SDS011;10539;53.686;9.158;2023-04-25T13:13:36;4.37;;;0.90;;
20758;SDS011;10539;53.686;9.158;2023-04-25T13:16:02;8.33;;;1.10;;
20758;SDS011;10539;53.686;9.158;2023-04-25T13:18:31;11.77;;;1.17;;
20758;SDS011;10539;53.686;9.158;2023-04-25T13:20:57;8.83;;;1.60;;
20758;SDS011;10539;53.686;9.158;2023-04-25T13:23:24;9.27;;;1.63;;
20758;SDS011;10539;53.686;9.158;2023-04-25T13:25:51;7.67;;;1.33;;
20758;SDS011;10539;53.686;9.158;2023-04-25T13:28:18;4.40;;;0.97;;
20758;SDS011;10539;53.686;9.158;2023-04-25T13:30:43;3.20;;;0.70;;
20758;SDS011;10539;53.686;9.158;2023-04-25T13:33:09;4.67;;;0.63;;
20758;SDS011;10539;53.686;9.158;2023-04-25T13:35:36;10.10;;;1.43;;
20758;SDS011;10539;53.686;9.158;2023-04-25T13:38:02;5.73;;;1.00;;
20758;SDS011;10539;53.686;9.158;2023-04-25T13:40:28;10.60;;;1.40;;
20758;SDS011;10539;53.686;9.158;2023-04-25T13:42:55;5.87;;;1.30;;
20758;SDS011;10539;53.686;9.158;2023-04-25T13:45:21;5.80;;;1.07;;
20758;SDS011;10539;53.686;9.158;2023-04-25T13:47:47;9.57;;;1.40;;
20758;SDS011;10539;53.686;9.158;2023-04-25T13:50:13;5.90;;;1.17;;
20758;SDS011;10539;53.686;9.158;2023-04-25T13:52:40;5.70;;;0.77;;
20758;SDS011;10539;53.686;9.158;2023-04-25T13:55:07;3.80;;;0.80;;
20758;SDS011;10539;53.686;9.158;2023-04-25T13:57:34;4.70;;;0.93;;
20758;SDS011;10539;53.686;9.158;2023-04-25T14:00:00;3.17;;;1.00;;
20758;SDS011;10539;53.686;9.158;2023-04-25T14:02:31;7.40;;;0.97;;
20758;SDS011;10539;53.686;9.158;2023-04-25T14:04:57;11.10;;;1.27;;
20758;SDS011;10539;53.686;9.158;2023-04-25T14:07:22;8.67;;;1.20;;
20758;SDS011;10539;53.686;9.158;2023-04-25T14:09:48;4.63;;;0.97;;
20758;SDS011;10539;53.686;9.158;2023-04-25T14:12:16;8.33;;;1.10;;
20758;SDS011;10539;53.686;9.158;2023-04-25T14:14:42;9.67;;;1.57;;
20758;SDS011;10539;53.686;9.158;2023-04-25T14:17:08;5.37;;;1.10;;
20758;SDS011;10539;53.686;9.158;2023-04-25T14:19:34;8.37;;;1.73;;
20758;SDS011;10539;53.686;9.158;2023-04-25T14:22:00;7.73;;;1.30;;
20758;SDS011;10539;53.686;9.158;2023-04-25T14:24:26;9.67;;;1.33;;
20758;SDS011;10539;53.686;9.158;2023-04-25T14:26:52;9.57;;;1.50;;
20758;SDS011;10539;53.686;9.158;2023-04-25T14:29:18;8.93;;;1.40;;
20758;SDS011;10539;53.686;9.158;2023-04-25T14:31:43;6.53;;;1.07;;
20758;SDS011;10539;53.686;9.158;2023-04-25T14:34:10;5.73;;;1.40;;
20758;SDS011;10539;53.686;9.158;2023-04-25T14:36:36;8.00;;;1.30;;
20758;SDS011;10539;53.686;9.158;2023-04-25T14:39:02;8.97;;;1.57;;
20758;SDS011;10539;53.686;9.158;2023-04-25T14:41:29;8.57;;;1.80;;
20758;SDS011;10539;53.686;9.158;2023-04-25T14:43:55;13.20;;;1.63;;